sensor_id;sensor_type;location;lat;lon;timestamp;pressure;altitude;pressure_sealevel;temperature;humidity
11190;BME280;5651;50.926;4.718;2022-12-07T00:01:21;101766.53;;;4.95;100.00
11190;BME280;5651;50.926;4.718;2022-12-07T00:03:48;101767.13;;;4.88;100.00
11190;BME280;5651;50.926;4.718;2022-12-07T00:06:16;101767.00;;;4.83;100.00
11190;BME280;5651;50.926;4.718;2022-12-07T00:08:43;101767.69;;;4.78;100.00
11190;BME280;5651;50.926;4.718;2022-12-07T00:11:12;101766.69;;;4.74;100.00
11190;BME280;5651;50.926;4.718;2022-12-07T00:13:38;101766.53;;;4.69;100.00
11190;BME280;5651;50.926;4.718;2022-12-07T00:16:31;101759.44;;;4.64;100.00
11190;BME280;5651;50.926;4.718;2022-12-07T00:18:57;101761.88;;;4.59;100.00
11190;BME280;5651;50.926;4.718;2022-12-07T00:21:28;101757.31;;;4.52;100.00
11190;BME280;5651;50.926;4.718;2022-12-07T00:23:55;101757.09;;;4.46;100.00
11190;BME280;5651;50.926;4.718;2022-12-07T00:26:23;101756.84;;;4.38;100.00
11190;BME280;5651;50.926;4.718;2022-12-07T00:28:51;101759.19;;;4.32;100.00
11190;BME280;5651;50.926;4.718;2022-12-07T00:31:19;101764.09;;;4.24;100.00
11190;BME280;5651;50.926;4.718;2022-12-07T00:33:46;101756.91;;;4.15;100.00
11190;BME280;5651;50.926;4.718;2022-12-07T00:36:15;101762.63;;;4.08;100.00
11190;BME280;5651;50.926;4.718;2022-12-07T00:38:41;101766.69;;;4.01;100.00
11190;BME280;5651;50.926;4.718;2022-12-07T00:41:14;101768.09;;;3.93;100.00
11190;BME280;5651;50.926;4.718;2022-12-07T00:43:41;101769.56;;;3.86;100.00
11190;BME280;5651;50.926;4.718;2022-12-07T00:46:08;101775.38;;;3.80;100.00
11190;BME280;5651;50.926;4.718;2022-12-07T00:48:34;101764.00;;;3.75;100.00
11190;BME280;5651;50.926;4.718;2022-12-07T00:51:00;101763.00;;;3.72;100.00
11190;BME280;5651;50.926;4.718;2022-12-07T00:53:27;101759.50;;;3.70;100.00
11190;BME280;5651;50.926;4.718;2022-12-07T00:55:53;101768.06;;;3.69;100.00
11190;BME280;5651;50.926;4.718;2022-12-07T00:58:19;101754.28;;;3.68;100.00
11190;BME280;5651;50.926;4.718;2022-12-07T01:00:45;101753.69;;;3.75;100.00
11190;BME280;5651;50.926;4.718;2022-12-07T01:03:13;101757.16;;;3.76;100.00
11190;BME280;5651;50.926;4.718;2022-12-07T01:05:39;101756.44;;;3.80;100.00
11190;BME280;5651;50.926;4.718;2022-12-07T01:08:06;101751.28;;;3.80;100.00
11190;BME280;5651;50.926;4.718;2022-12-07T01:10:32;101754.94;;;3.85;100.00
11190;BME280;5651;50.926;4.718;2022-12-07T01:12:58;101754.81;;;3.82;100.00
11190;BME280;5651;50.926;4.718;2022-12-07T01:15:25;101750.41;;;3.79;100.00
11190;BME280;5651;50.926;4.718;2022-12-07T01:17:51;101747.75;;;3.78;100.00
11190;BME280;5651;50.926;4.718;2022-12-07T01:20:17;101749.34;;;3.74;100.00
11190;BME280;5651;50.926;4.718;2022-12-07T01:22:43;101749.25;;;3.71;100.00
11190;BME280;5651;50.926;4.718;2022-12-07T01:25:10;101747.44;;;3.69;100.00
11190;BME280;5651;50.926;4.718;2022-12-07T01:27:36;101755.94;;;3.66;100.00
11190;BME280;5651;50.926;4.718;2022-12-07T01:30:03;101755.84;;;3.64;100.00
11190;BME280;5651;50.926;4.718;2022-12-07T01:32:30;101766.16;;;3.64;100.00
11190;BME280;5651;50.926;4.718;2022-12-07T01:34:55;101767.06;;;3.65;100.00
11190;BME280;5651;50.926;4.718;2022-12-07T01:37:21;101769.69;;;3.67;100.00
11190;BME280;5651;50.926;4.718;2022-12-07T01:39:50;101767.25;;;3.70;100.00
11190;BME280;5651;50.926;4.718;2022-12-07T01:42:17;101753.69;;;3.75;100.00
11190;BME280;5651;50.926;4.718;2022-12-07T01:47:46;101761.09;;;3.89;100.00
11190;BME280;5651;50.926;4.718;2022-12-07T01:50:13;101754.50;;;3.97;100.00
11190;BME280;5651;50.926;4.718;2022-12-07T01:52:39;101763.16;;;3.99;100.00
11190;BME280;5651;50.926;4.718;2022-12-07T01:55:12;101770.94;;;4.01;100.00
11190;BME280;5651;50.926;4.718;2022-12-07T01:57:41;101763.34;;;4.04;100.00
11190;BME280;5651;50.926;4.718;2022-12-07T02:00:09;101756.66;;;4.09;100.00
11190;BME280;5651;50.926;4.718;2022-12-07T02:02:40;101757.00;;;4.18;100.00
11190;BME280;5651;50.926;4.718;2022-12-07T02:05:07;101752.78;;;4.20;100.00
11190;BME280;5651;50.926;4.718;2022-12-07T02:07:36;101752.13;;;4.26;100.00
11190;BME280;5651;50.926;4.718;2022-12-07T02:10:20;101745.41;;;4.31;100.00
11190;BME280;5651;50.926;4.718;2022-12-07T02:15:33;101745.53;;;4.34;100.00
11190;BME280;5651;50.926;4.718;2022-12-07T02:20:54;101750.69;;;4.34;100.00
11190;BME280;5651;50.926;4.718;2022-12-07T02:23:40;101746.28;;;4.32;100.00
11190;BME280;5651;50.926;4.718;2022-12-07T02:26:39;101757.28;;;4.26;100.00
11190;BME280;5651;50.926;4.718;2022-12-07T02:29:22;101750.97;;;4.18;100.00
11190;BME280;5651;50.926;4.718;2022-12-07T02:34:49;101746.16;;;4.04;100.00
11190;BME280;5651;50.926;4.718;2022-12-07T02:39:59;101752.75;;;3.96;100.00
11190;BME280;5651;50.926;4.718;2022-12-07T02:42:35;101743.94;;;3.91;100.00
11190;BME280;5651;50.926;4.718;2022-12-07T02:45:02;101752.59;;;3.91;100.00
11190;BME280;5651;50.926;4.718;2022-12-07T02:47:31;101748.19;;;3.89;100.00
11190;BME280;5651;50.926;4.718;2022-12-07T02:49:59;101737.16;;;3.93;100.00
11190;BME280;5651;50.926;4.718;2022-12-07T02:52:25;101744.94;;;3.94;100.00
11190;BME280;5651;50.926;4.718;2022-12-07T02:54:51;101745.06;;;3.97;100.00
11190;BME280;5651;50.926;4.718;2022-12-07T02:57:38;101740.00;;;4.01;100.00
11190;BME280;5651;50.926;4.718;2022-12-07T03:00:09;101740.91;;;4.01;100.00
11190;BME280;5651;50.926;4.718;2022-12-07T03:11:03;101734.00;;;4.00;100.00
11190;BME280;5651;50.926;4.718;2022-12-07T03:16:05;101734.81;;;3.99;100.00
11190;BME280;5651;50.926;4.718;2022-12-07T03:18:40;101729.69;;;4.01;100.00
11190;BME280;5651;50.926;4.718;2022-12-07T03:21:11;101737.50;;;4.02;100.00
11190;BME280;5651;50.926;4.718;2022-12-07T03:23:41;101732.34;;;4.02;100.00
11190;BME280;5651;50.926;4.718;2022-12-07T03:26:11;101740.94;;;4.03;100.00
11190;BME280;5651;50.926;4.718;2022-12-07T03:28:42;101738.31;;;4.01;100.00
11190;BME280;5651;50.926;4.718;2022-12-07T03:31:22;101738.31;;;4.01;100.00
11190;BME280;5651;50.926;4.718;2022-12-07T03:37:12;101725.47;;;4.03;100.00
11190;BME280;5651;50.926;4.718;2022-12-07T03:39:46;101720.31;;;4.03;100.00
11190;BME280;5651;50.926;4.718;2022-12-07T03:42:16;101721.22;;;4.03;100.00
11190;BME280;5651;50.926;4.718;2022-12-07T03:44:42;101722.13;;;4.05;100.00
11190;BME280;5651;50.926;4.718;2022-12-07T03:47:16;101722.31;;;4.10;100.00
11190;BME280;5651;50.926;4.718;2022-12-07T03:52:39;101722.38;;;4.11;100.00
11190;BME280;5651;50.926;4.718;2022-12-07T03:55:14;101717.13;;;4.10;100.00
11190;BME280;5651;50.926;4.718;2022-12-07T03:57:44;101726.59;;;4.09;100.00
11190;BME280;5651;50.926;4.718;2022-12-07T04:00:13;101722.22;;;4.07;100.00
11190;BME280;5651;50.926;4.718;2022-12-07T04:02:39;101718.69;;;4.05;100.00
11190;BME280;5651;50.926;4.718;2022-12-07T04:05:06;101722.03;;;4.02;100.00
11190;BME280;5651;50.926;4.718;2022-12-07T04:07:32;101724.50;;;3.99;100.00
11190;BME280;5651;50.926;4.718;2022-12-07T04:09:58;101722.50;;;3.92;100.00
11190;BME280;5651;50.926;4.718;2022-12-07T04:12:23;101710.34;;;3.88;100.00
11190;BME280;5651;50.926;4.718;2022-12-07T04:14:49;101721.28;;;3.82;100.00
11190;BME280;5651;50.926;4.718;2022-12-07T04:17:15;101721.97;;;3.78;100.00
11190;BME280;5651;50.926;4.718;2022-12-07T04:19:41;101721.75;;;3.72;100.00
11190;BME280;5651;50.926;4.718;2022-12-07T04:22:07;101719.72;;;3.63;100.00
11190;BME280;5651;50.926;4.718;2022-12-07T04:24:33;101733.25;;;3.57;100.00
11190;BME280;5651;50.926;4.718;2022-12-07T04:26:59;101730.25;;;3.46;100.00
11190;BME280;5651;50.926;4.718;2022-12-07T04:29:25;101725.63;;;3.38;100.00
11190;BME280;5651;50.926;4.718;2022-12-07T04:31:51;101727.84;;;3.28;100.00
11190;BME280;5651;50.926;4.718;2022-12-07T04:34:17;101725.66;;;3.16;100.00
11190;BME280;5651;50.926;4.718;2022-12-07T04:36:44;101724.41;;;3.07;100.00
11190;BME280;5651;50.926;4.718;2022-12-07T04:39:30;101720.63;;;2.98;100.00
11190;BME280;5651;50.926;4.718;2022-12-07T04:41:57;101717.88;;;2.94;100.00
11190;BME280;5651;50.926;4.718;2022-12-07T04:44:24;101719.44;;;2.90;100.00
11190;BME280;5651;50.926;4.718;2022-12-07T04:46:51;101726.31;;;2.90;100.00
11190;BME280;5651;50.926;4.718;2022-12-07T04:49:17;101722.91;;;2.91;100.00
11190;BME280;5651;50.926;4.718;2022-12-07T04:51:44;101713.44;;;2.90;100.00
11190;BME280;5651;50.926;4.718;2022-12-07T04:54:10;101716.91;;;2.92;100.00
11190;BME280;5651;50.926;4.718;2022-12-07T04:56:36;101714.28;;;2.90;100.00
11190;BME280;5651;50.926;4.718;2022-12-07T04:59:03;101703.00;;;2.87;100.00
11190;BME280;5651;50.926;4.718;2022-12-07T05:01:29;101702.94;;;2.85;100.00
11190;BME280;5651;50.926;4.718;2022-12-07T05:03:55;101713.00;;;2.79;100.00
11190;BME280;5651;50.926;4.718;2022-12-07T05:06:20;101704.25;;;2.75;100.00
11190;BME280;5651;50.926;4.718;2022-12-07T05:08:46;101710.09;;;2.71;100.00
11190;BME280;5651;50.926;4.718;2022-12-07T05:11:12;101717.75;;;2.69;100.00
11190;BME280;5651;50.926;4.718;2022-12-07T05:13:57;101719.16;;;2.63;100.00
11190;BME280;5651;50.926;4.718;2022-12-07T05:16:23;101723.25;;;2.58;100.00
11190;BME280;5651;50.926;4.718;2022-12-07T05:18:49;101726.50;;;2.53;100.00
11190;BME280;5651;50.926;4.718;2022-12-07T05:21:14;101719.47;;;2.49;100.00
11190;BME280;5651;50.926;4.718;2022-12-07T05:23:40;101720.28;;;2.48;100.00
11190;BME280;5651;50.926;4.718;2022-12-07T05:26:05;101718.59;;;2.49;100.00
11190;BME280;5651;50.926;4.718;2022-12-07T05:28:31;101713.53;;;2.50;100.00
11190;BME280;5651;50.926;4.718;2022-12-07T05:30:57;101712.00;;;2.56;100.00
11190;BME280;5651;50.926;4.718;2022-12-07T05:33:22;101710.69;;;2.65;100.00
11190;BME280;5651;50.926;4.718;2022-12-07T05:35:48;101707.41;;;2.68;100.00
11190;BME280;5651;50.926;4.718;2022-12-07T05:38:14;101714.66;;;2.78;100.00
11190;BME280;5651;50.926;4.718;2022-12-07T05:40:40;101711.47;;;2.84;100.00
11190;BME280;5651;50.926;4.718;2022-12-07T05:43:05;101714.25;;;2.89;100.00
11190;BME280;5651;50.926;4.718;2022-12-07T05:45:31;101711.88;;;2.93;100.00
11190;BME280;5651;50.926;4.718;2022-12-07T05:47:57;101715.31;;;2.94;100.00
11190;BME280;5651;50.926;4.718;2022-12-07T05:50:22;101712.06;;;2.98;100.00
11190;BME280;5651;50.926;4.718;2022-12-07T05:52:48;101713.72;;;2.97;100.00
11190;BME280;5651;50.926;4.718;2022-12-07T05:55:14;101712.88;;;2.97;100.00
11190;BME280;5651;50.926;4.718;2022-12-07T05:57:39;101717.19;;;2.98;100.00
11190;BME280;5651;50.926;4.718;2022-12-07T06:00:25;101708.63;;;2.99;100.00
11190;BME280;5651;50.926;4.718;2022-12-07T06:02:51;101713.88;;;3.00;100.00
11190;BME280;5651;50.926;4.718;2022-12-07T06:05:16;101705.34;;;3.01;100.00
11190;BME280;5651;50.926;4.718;2022-12-07T06:07:42;101708.00;;;3.05;100.00
11190;BME280;5651;50.926;4.718;2022-12-07T06:10:08;101703.75;;;3.05;100.00
11190;BME280;5651;50.926;4.718;2022-12-07T06:12:34;101703.06;;;3.09;100.00
11190;BME280;5651;50.926;4.718;2022-12-07T06:14:59;101703.84;;;3.08;100.00
11190;BME280;5651;50.926;4.718;2022-12-07T06:17:25;101708.19;;;3.09;100.00
11190;BME280;5651;50.926;4.718;2022-12-07T06:19:51;101710.00;;;3.12;100.00
11190;BME280;5651;50.926;4.718;2022-12-07T06:22:16;101710.81;;;3.11;100.00
11190;BME280;5651;50.926;4.718;2022-12-07T06:24:42;101710.91;;;3.12;100.00
11190;BME280;5651;50.926;4.718;2022-12-07T06:27:09;101707.53;;;3.13;100.00
11190;BME280;5651;50.926;4.718;2022-12-07T06:29:35;101708.44;;;3.15;100.00
11190;BME280;5651;50.926;4.718;2022-12-07T06:32:01;101713.66;;;3.17;100.00
11190;BME280;5651;50.926;4.718;2022-12-07T06:34:27;101711.97;;;3.17;100.00
11190;BME280;5651;50.926;4.718;2022-12-07T06:36:53;101713.78;;;3.20;100.00
11190;BME280;5651;50.926;4.718;2022-12-07T06:39:29;101706.94;;;3.21;100.00
11190;BME280;5651;50.926;4.718;2022-12-07T06:41:55;101710.34;;;3.20;100.00
11190;BME280;5651;50.926;4.718;2022-12-07T06:44:21;101713.78;;;3.20;100.00
11190;BME280;5651;50.926;4.718;2022-12-07T06:46:48;101709.53;;;3.21;100.00
11190;BME280;5651;50.926;4.718;2022-12-07T06:49:14;101710.34;;;3.20;100.00
11190;BME280;5651;50.926;4.718;2022-12-07T06:51:40;101705.03;;;3.16;100.00
11190;BME280;5651;50.926;4.718;2022-12-07T06:54:13;101715.28;;;3.15;100.00
11190;BME280;5651;50.926;4.718;2022-12-07T06:56:39;101709.16;;;3.11;100.00
11190;BME280;5651;50.926;4.718;2022-12-07T06:59:06;101718.56;;;3.11;100.00
11190;BME280;5651;50.926;4.718;2022-12-07T07:01:33;101718.50;;;3.09;100.00
11190;BME280;5651;50.926;4.718;2022-12-07T07:04:00;101711.59;;;3.08;100.00
11190;BME280;5651;50.926;4.718;2022-12-07T07:06:26;101720.22;;;3.09;100.00
11190;BME280;5651;50.926;4.718;2022-12-07T07:08:51;101720.25;;;3.10;100.00
11190;BME280;5651;50.926;4.718;2022-12-07T07:11:17;101725.47;;;3.12;100.00
11190;BME280;5651;50.926;4.718;2022-12-07T07:13:44;101729.84;;;3.14;100.00
11190;BME280;5651;50.926;4.718;2022-12-07T07:16:10;101730.69;;;3.13;100.00
11190;BME280;5651;50.926;4.718;2022-12-07T07:18:36;101733.38;;;3.16;100.00
11190;BME280;5651;50.926;4.718;2022-12-07T07:21:02;101725.78;;;3.20;100.00
11190;BME280;5651;50.926;4.718;2022-12-07T07:23:28;101720.75;;;3.23;100.00
11190;BME280;5651;50.926;4.718;2022-12-07T07:25:54;101717.78;;;3.35;100.00
11190;BME280;5651;50.926;4.718;2022-12-07T07:28:20;101718.28;;;3.47;100.00
11190;BME280;5651;50.926;4.718;2022-12-07T07:30:46;101712.63;;;3.57;100.00
11190;BME280;5651;50.926;4.718;2022-12-07T07:33:12;101719.50;;;3.57;100.00
11190;BME280;5651;50.926;4.718;2022-12-07T07:35:38;101718.78;;;3.61;100.00
11190;BME280;5651;50.926;4.718;2022-12-07T07:38:05;101718.13;;;3.67;100.00
11190;BME280;5651;50.926;4.718;2022-12-07T07:40:31;101714.78;;;3.69;100.00
11190;BME280;5651;50.926;4.718;2022-12-07T07:42:58;101710.44;;;3.68;100.00
11190;BME280;5651;50.926;4.718;2022-12-07T07:45:24;101717.28;;;3.66;100.00
11190;BME280;5651;50.926;4.718;2022-12-07T07:47:50;101711.22;;;3.65;100.00
11190;BME280;5651;50.926;4.718;2022-12-07T07:50:16;101715.44;;;3.63;100.00
11190;BME280;5651;50.926;4.718;2022-12-07T07:52:43;101711.03;;;3.61;100.00
11190;BME280;5651;50.926;4.718;2022-12-07T07:55:09;101722.06;;;3.57;100.00
11190;BME280;5651;50.926;4.718;2022-12-07T07:57:36;101718.41;;;3.52;100.00
11190;BME280;5651;50.926;4.718;2022-12-07T08:00:08;101717.28;;;3.43;100.00
11190;BME280;5651;50.926;4.718;2022-12-07T08:02:34;101716.94;;;3.36;100.00
11190;BME280;5651;50.926;4.718;2022-12-07T08:05:00;101710.63;;;3.27;100.00
11190;BME280;5651;50.926;4.718;2022-12-07T08:07:27;101713.72;;;3.19;100.00
11190;BME280;5651;50.926;4.718;2022-12-07T08:09:52;101728.94;;;3.12;100.00
11190;BME280;5651;50.926;4.718;2022-12-07T08:12:18;101728.59;;;3.05;100.00
11190;BME280;5651;50.926;4.718;2022-12-07T08:14:44;101729.16;;;2.97;100.00
11190;BME280;5651;50.926;4.718;2022-12-07T08:17:10;101732.31;;;2.90;100.00
11190;BME280;5651;50.926;4.718;2022-12-07T08:19:35;101732.06;;;2.84;100.00
11190;BME280;5651;50.926;4.718;2022-12-07T08:22:02;101728.44;;;2.79;100.00
11190;BME280;5651;50.926;4.718;2022-12-07T08:24:27;101735.97;;;2.74;100.00
11190;BME280;5651;50.926;4.718;2022-12-07T08:26:53;101740.22;;;2.74;100.00
11190;BME280;5651;50.926;4.718;2022-12-07T08:29:19;101739.34;;;2.73;100.00
11190;BME280;5651;50.926;4.718;2022-12-07T08:31:46;101747.06;;;2.73;100.00
11190;BME280;5651;50.926;4.718;2022-12-07T08:34:12;101743.72;;;2.76;100.00
11190;BME280;5651;50.926;4.718;2022-12-07T08:36:38;101745.50;;;2.77;100.00
11190;BME280;5651;50.926;4.718;2022-12-07T08:39:04;101742.13;;;2.78;100.00
11190;BME280;5651;50.926;4.718;2022-12-07T08:41:29;101748.31;;;2.83;100.00
11190;BME280;5651;50.926;4.718;2022-12-07T08:43:55;101750.28;;;2.89;100.00
11190;BME280;5651;50.926;4.718;2022-12-07T08:46:25;101752.34;;;2.97;100.00
11190;BME280;5651;50.926;4.718;2022-12-07T08:49:02;101744.09;;;3.06;100.00
11190;BME280;5651;50.926;4.718;2022-12-07T08:51:29;101747.06;;;3.15;100.00
11190;BME280;5651;50.926;4.718;2022-12-07T08:53:55;101744.91;;;3.26;100.00
11190;BME280;5651;50.926;4.718;2022-12-07T08:56:24;101738.69;;;3.42;100.00
11190;BME280;5651;50.926;4.718;2022-12-07T08:58:50;101745.13;;;3.54;100.00
11190;BME280;5651;50.926;4.718;2022-12-07T09:01:16;101742.19;;;3.67;100.00
11190;BME280;5651;50.926;4.718;2022-12-07T09:03:41;101748.66;;;3.78;100.00
11190;BME280;5651;50.926;4.718;2022-12-07T09:06:07;101754.25;;;3.91;100.00
11190;BME280;5651;50.926;4.718;2022-12-07T09:08:36;101745.16;;;4.01;100.00
11190;BME280;5651;50.926;4.718;2022-12-07T09:11:04;101745.47;;;4.08;100.00
11190;BME280;5651;50.926;4.718;2022-12-07T09:13:29;101746.56;;;4.15;100.00
11190;BME280;5651;50.926;4.718;2022-12-07T09:15:55;101748.47;;;4.21;100.00
11190;BME280;5651;50.926;4.718;2022-12-07T09:18:21;101750.47;;;4.28;100.00
11190;BME280;5651;50.926;4.718;2022-12-07T09:20:47;101747.34;;;4.37;100.00
11190;BME280;5651;50.926;4.718;2022-12-07T09:23:12;101752.81;;;4.46;100.00
11190;BME280;5651;50.926;4.718;2022-12-07T09:25:38;101739.38;;;4.55;100.00
11190;BME280;5651;50.926;4.718;2022-12-07T09:28:04;101742.41;;;4.69;100.00
11190;BME280;5651;50.926;4.718;2022-12-07T09:30:29;101745.97;;;4.72;100.00
11190;BME280;5651;50.926;4.718;2022-12-07T09:32:56;101739.91;;;4.70;100.00
11190;BME280;5651;50.926;4.718;2022-12-07T09:35:23;101741.94;;;4.81;100.00
11190;BME280;5651;50.926;4.718;2022-12-07T09:37:49;101740.41;;;4.86;100.00
11190;BME280;5651;50.926;4.718;2022-12-07T09:40:16;101738.63;;;4.83;100.00
11190;BME280;5651;50.926;4.718;2022-12-07T09:42:45;101731.09;;;4.91;100.00
11190;BME280;5651;50.926;4.718;2022-12-07T09:45:19;101732.78;;;5.16;100.00
11190;BME280;5651;50.926;4.718;2022-12-07T09:47:47;101730.34;;;5.21;100.00
11190;BME280;5651;50.926;4.718;2022-12-07T09:50:20;101730.47;;;5.24;100.00
11190;BME280;5651;50.926;4.718;2022-12-07T09:52:47;101724.72;;;5.34;100.00
11190;BME280;5651;50.926;4.718;2022-12-07T09:55:16;101723.13;;;5.38;100.00
11190;BME280;5651;50.926;4.718;2022-12-07T09:57:45;101727.06;;;5.54;100.00
11190;BME280;5651;50.926;4.718;2022-12-07T10:00:16;101721.09;;;5.57;100.00
11190;BME280;5651;50.926;4.718;2022-12-07T10:02:44;101722.03;;;5.59;100.00
11190;BME280;5651;50.926;4.718;2022-12-07T10:05:16;101718.72;;;5.64;100.00
11190;BME280;5651;50.926;4.718;2022-12-07T10:07:43;101725.81;;;5.70;100.00
11190;BME280;5651;50.926;4.718;2022-12-07T10:10:15;101711.44;;;5.80;100.00
11190;BME280;5651;50.926;4.718;2022-12-07T10:13:02;101714.25;;;5.87;100.00
11190;BME280;5651;50.926;4.718;2022-12-07T10:16:00;101704.31;;;6.01;100.00
11190;BME280;5651;50.926;4.718;2022-12-07T10:18:33;101698.56;;;6.12;100.00
11190;BME280;5651;50.926;4.718;2022-12-07T10:21:25;101698.22;;;6.31;100.00
11190;BME280;5651;50.926;4.718;2022-12-07T10:26:30;101697.53;;;6.37;100.00
11190;BME280;5651;50.926;4.718;2022-12-07T10:28:59;101695.22;;;6.48;100.00
11190;BME280;5651;50.926;4.718;2022-12-07T10:31:26;101689.28;;;6.52;100.00
11190;BME280;5651;50.926;4.718;2022-12-07T10:33:54;101692.16;;;6.63;100.00
11190;BME280;5651;50.926;4.718;2022-12-07T10:44:24;101683.44;;;6.96;100.00
11190;BME280;5651;50.926;4.718;2022-12-07T10:47:09;101689.69;;;7.04;100.00
11190;BME280;5651;50.926;4.718;2022-12-07T10:57:51;101687.75;;;7.32;100.00
11190;BME280;5651;50.926;4.718;2022-12-07T11:00:23;101682.25;;;7.18;100.00
11190;BME280;5651;50.926;4.718;2022-12-07T11:08:33;101671.84;;;7.17;100.00
11190;BME280;5651;50.926;4.718;2022-12-07T11:11:16;101664.81;;;7.12;100.00
11190;BME280;5651;50.926;4.718;2022-12-07T11:22:04;101637.00;;;7.04;100.00
11190;BME280;5651;50.926;4.718;2022-12-07T11:30:06;101630.03;;;7.41;100.00
11190;BME280;5651;50.926;4.718;2022-12-07T11:35:29;101624.19;;;7.51;100.00
11190;BME280;5651;50.926;4.718;2022-12-07T11:38:01;101627.06;;;7.67;100.00
11190;BME280;5651;50.926;4.718;2022-12-07T11:40:36;101624.56;;;7.70;100.00
11190;BME280;5651;50.926;4.718;2022-12-07T11:43:15;101626.19;;;7.65;100.00
11190;BME280;5651;50.926;4.718;2022-12-07T11:45:47;101616.69;;;7.65;100.00
11190;BME280;5651;50.926;4.718;2022-12-07T11:48:22;101619.28;;;7.65;100.00
11190;BME280;5651;50.926;4.718;2022-12-07T11:50:52;101615.81;;;7.65;100.00
11190;BME280;5651;50.926;4.718;2022-12-07T11:53:27;101611.59;;;7.70;100.00
11190;BME280;5651;50.926;4.718;2022-12-07T11:56:08;101610.84;;;7.75;100.00
11190;BME280;5651;50.926;4.718;2022-12-07T11:58:42;101604.94;;;7.84;100.00
11190;BME280;5651;50.926;4.718;2022-12-07T12:01:14;101605.94;;;7.91;100.00
11190;BME280;5651;50.926;4.718;2022-12-07T12:04:32;101597.47;;;8.01;100.00
11190;BME280;5651;50.926;4.718;2022-12-07T12:06:31;101601.63;;;7.91;100.00
11190;BME280;5651;50.926;4.718;2022-12-07T12:15:28;101587.88;;;7.96;100.00
11190;BME280;5651;50.926;4.718;2022-12-07T12:20:55;101572.41;;;8.03;100.00
11190;BME280;5651;50.926;4.718;2022-12-07T12:26:03;101584.44;;;7.97;100.00
11190;BME280;5651;50.926;4.718;2022-12-07T12:28:38;101577.69;;;8.08;100.00
11190;BME280;5651;50.926;4.718;2022-12-07T12:31:10;101574.94;;;7.99;100.00
11190;BME280;5651;50.926;4.718;2022-12-07T12:33:38;101568.25;;;8.12;100.00
11190;BME280;5651;50.926;4.718;2022-12-07T12:39:09;101571.50;;;8.00;100.00
11190;BME280;5651;50.926;4.718;2022-12-07T12:51:57;101558.72;;;8.64;100.00
11190;BME280;5651;50.926;4.718;2022-12-07T12:54:27;101565.19;;;8.93;100.00
11190;BME280;5651;50.926;4.718;2022-12-07T13:02:23;101546.84;;;10.42;100.00
11190;BME280;5651;50.926;4.718;2022-12-07T13:04:53;101545.47;;;11.01;100.00
11190;BME280;5651;50.926;4.718;2022-12-07T13:29:35;101518.38;;;10.68;87.22
11190;BME280;5651;50.926;4.718;2022-12-07T13:31:47;101516.53;;;10.55;88.65
11190;BME280;5651;50.926;4.718;2022-12-07T13:37:02;101511.59;;;9.81;88.07
11190;BME280;5651;50.926;4.718;2022-12-07T13:39:33;101509.00;;;9.82;89.07
11190;BME280;5651;50.926;4.718;2022-12-07T13:42:11;101499.28;;;9.67;90.54
11190;BME280;5651;50.926;4.718;2022-12-07T13:44:41;101504.78;;;9.12;90.29
11190;BME280;5651;50.926;4.718;2022-12-07T13:47:15;101499.50;;;9.06;91.28
11190;BME280;5651;50.926;4.718;2022-12-07T13:49:54;101494.19;;;8.97;91.65
11190;BME280;5651;50.926;4.718;2022-12-07T13:52:28;101500.94;;;8.82;92.53
11190;BME280;5651;50.926;4.718;2022-12-07T13:54:59;101499.97;;;8.74;93.21
11190;BME280;5651;50.926;4.718;2022-12-07T13:57:28;101492.97;;;8.68;94.29
11190;BME280;5651;50.926;4.718;2022-12-07T13:59:54;101496.56;;;8.78;96.33
11190;BME280;5651;50.926;4.718;2022-12-07T14:04:50;101485.34;;;8.81;96.78
11190;BME280;5651;50.926;4.718;2022-12-07T14:07:26;101490.31;;;8.65;97.83
11190;BME280;5651;50.926;4.718;2022-12-07T14:10:00;101490.47;;;8.78;97.12
11190;BME280;5651;50.926;4.718;2022-12-07T14:12:28;101493.97;;;8.78;95.99
11190;BME280;5651;50.926;4.718;2022-12-07T14:14:55;101492.56;;;8.42;95.71
11190;BME280;5651;50.926;4.718;2022-12-07T14:17:24;101499.31;;;8.32;96.84
11190;BME280;5651;50.926;4.718;2022-12-07T14:19:58;101498.34;;;8.24;96.02
11190;BME280;5651;50.926;4.718;2022-12-07T14:22:31;101491.19;;;8.07;96.13
11190;BME280;5651;50.926;4.718;2022-12-07T14:27:39;101488.44;;;8.00;96.43
11190;BME280;5651;50.926;4.718;2022-12-07T14:30:05;101482.06;;;7.79;95.97
11190;BME280;5651;50.926;4.718;2022-12-07T14:32:34;101493.06;;;7.66;97.40
11190;BME280;5651;50.926;4.718;2022-12-07T14:35:01;101486.25;;;7.72;97.29
11190;BME280;5651;50.926;4.718;2022-12-07T14:37:28;101491.69;;;7.37;96.91
11190;BME280;5651;50.926;4.718;2022-12-07T14:39:55;101490.28;;;7.10;98.26
11190;BME280;5651;50.926;4.718;2022-12-07T14:42:23;101480.72;;;7.08;96.99
11190;BME280;5651;50.926;4.718;2022-12-07T14:44:49;101484.63;;;6.87;97.31
11190;BME280;5651;50.926;4.718;2022-12-07T14:47:15;101470.72;;;6.82;97.53
11190;BME280;5651;50.926;4.718;2022-12-07T14:49:41;101476.53;;;6.72;97.88
11190;BME280;5651;50.926;4.718;2022-12-07T14:52:15;101472.91;;;6.63;97.62
11190;BME280;5651;50.926;4.718;2022-12-07T14:54:41;101478.03;;;6.60;98.25
11190;BME280;5651;50.926;4.718;2022-12-07T14:57:09;101477.03;;;6.55;98.13
11190;BME280;5651;50.926;4.718;2022-12-07T14:59:35;101482.91;;;6.48;99.27
11190;BME280;5651;50.926;4.718;2022-12-07T15:02:01;101475.94;;;6.44;100.00
11190;BME280;5651;50.926;4.718;2022-12-07T15:04:27;101483.59;;;6.39;100.00
11190;BME280;5651;50.926;4.718;2022-12-07T15:07:00;101470.56;;;6.36;100.00
11190;BME280;5651;50.926;4.718;2022-12-07T15:09:26;101465.38;;;6.36;100.00
11190;BME280;5651;50.926;4.718;2022-12-07T15:11:52;101463.56;;;6.30;100.00
11190;BME280;5651;50.926;4.718;2022-12-07T15:14:18;101464.31;;;6.26;100.00
11190;BME280;5651;50.926;4.718;2022-12-07T15:16:44;101462.41;;;6.19;100.00
11190;BME280;5651;50.926;4.718;2022-12-07T15:19:20;101465.09;;;6.22;100.00
11190;BME280;5651;50.926;4.718;2022-12-07T15:21:48;101460.63;;;6.16;100.00